Time;durP1;ratioP1;P1;durP2;ratioP2;P2;SDS_P1;SDS_P2;PMS_P1;PMS_P2;Temp;Humidity;BMP_temperature;BMP_pressure;BME280_temperature;BME280_humidity;BME280_pressure;Samples;Min_cycle;Max_cycle;Signal;HPM_P1;HPM_P2
2023/08/03 00:01:13;;;;;;;8.73;2.28;;;15.60;99.90;;;;;;6130708;23;20025;-91
2023/08/03 00:03:31;;;;;;;7.30;2.53;;;15.90;99.90;;;;;;6144785;23;20018;-91
2023/08/03 00:11:56;;;;;;;8.40;2.20;;;15.90;99.90;;;;;;6039656;23;20087;-91
2023/08/03 00:15:01;;;;;;;10.50;2.35;;;15.90;99.90;;;;;;6014239;23;20027;-92
2023/08/03 00:48:25;;;;;;;8.48;2.38;;;15.80;99.90;;;;;;6149694;23;20120;-89
2023/08/03 00:54:55;;;;;;;8.30;2.70;;;15.70;99.90;;;;;;6113624;23;20025;-88
2023/08/03 00:57:32;;;;;;;11.63;3.10;;;15.60;99.90;;;;;;6128690;23;20101;-89
2023/08/03 01:00:01;;;;;;;8.68;2.50;;;15.90;99.90;;;;;;6127815;23;20022;-88
2023/08/03 01:02:42;;;;;;;7.70;2.42;;;15.60;99.90;;;;;;6129684;23;20033;-90
2023/08/03 01:05:07;;;;;;;11.13;2.35;;;15.50;99.90;;;;;;6128828;23;20052;-89
2023/08/03 01:08:05;;;;;;;9.68;2.80;;;15.50;99.90;;;;;;6129328;23;20244;-89
2023/08/03 01:10:56;;;;;;;9.23;2.53;;;16.00;99.90;;;;;;6128314;23;20546;-90
2023/08/03 04:58:59;;;;;;;22.83;5.85;;;16.00;99.90;;;;;;6132561;23;20044;-92
2023/08/03 05:11:42;;;;;;;;;;;;;;;;;;;;;
2023/08/03 05:26:13;;;;;;;17.73;7.43;;;16.60;99.90;;;;;;6166617;23;20137;-92
2023/08/03 05:29:03;;;;;;;;;;;;;;;;;;;;;
2023/08/03 05:40:42;;;;;;;18.60;8.00;;;16.40;99.90;;;;;;6131284;23;20022;-91
2023/08/03 05:46:03;;;;;;;15.88;8.20;;;16.40;99.90;;;;;;6131091;23;20025;-90
2023/08/03 09:41:35;;;;;;;8.68;1.75;;;20.00;99.90;;;;;;6092772;23;20080;-84
2023/08/03 09:52:46;;;;;;;8.00;1.90;;;20.80;99.90;;;;;;6154024;23;19971;-85
2023/08/03 09:59:47;;;;;;;3.83;1.50;;;21.50;99.90;;;;;;6006116;23;20107;-84
2023/08/03 10:27:49;;;;;;;4.45;1.67;;;21.60;99.90;;;;;;6140722;23;20824;-86
2023/08/03 10:34:58;;;;;;;;;;;;;;;;;;;;;
2023/08/03 10:38:00;;;;;;;6.28;2.00;;;21.20;99.90;;;;;;6148876;23;20016;-90
2023/08/03 10:56:23;;;;;;;5.30;1.77;;;22.50;99.90;;;;;;6098903;23;20028;-88
2023/08/03 11:01:47;;;;;;;6.53;1.60;;;21.80;99.90;;;;;;6155139;23;20026;-88
2023/08/03 11:05:17;;;;;;;;;;;;;;;;;;;;;
2023/08/03 11:52:36;;;;;;;7.15;1.90;;;23.10;99.90;;;;;;6007407;23;19916;-87
2023/08/03 13:09:09;;;;;;;6.68;2.20;;;23.50;99.90;;;;;;6112325;23;20513;-86
2023/08/03 13:12:21;;;;;;;;;;;;;;;;;;;;;
2023/08/03 13:34:58;;;;;;;7.85;1.83;;;22.20;99.90;;;;;;6095781;23;20026;-86
2023/08/03 13:37:30;;;;;;;6.88;2.05;;;22.40;99.90;;;;;;5942702;23;20092;-84
2023/08/03 13:40:07;;;;;;;8.93;2.13;;;22.40;99.90;;;;;;6094115;23;20049;-87
2023/08/03 13:42:34;;;;;;;7.82;2.10;;;22.40;99.90;;;;;;6095417;23;20346;-85
2023/08/03 13:45:17;;;;;;;9.75;2.00;;;22.30;99.90;;;;;;6103764;23;20022;-86
2023/08/03 13:47:54;;;;;;;7.50;2.53;;;22.20;99.90;;;;;;6052487;23;1155517;-83
2023/08/03 13:50:20;;;;;;;8.30;2.13;;;22.00;99.90;;;;;;6152957;23;20026;-84
2023/08/03 13:55:27;;;;;;;7.38;2.10;;;21.80;99.90;;;;;;6150786;23;20512;-83
2023/08/03 13:57:53;;;;;;;7.95;2.30;;;21.60;99.90;;;;;;6154165;23;20311;-85
2023/08/03 14:00:36;;;;;;;7.55;1.98;;;21.70;99.90;;;;;;6129210;23;20017;-85
2023/08/03 14:03:03;;;;;;;8.90;2.30;;;21.80;99.90;;;;;;6129440;23;20032;-85
2023/08/03 14:05:37;;;;;;;8.43;1.80;;;22.00;99.90;;;;;;6127843;23;20009;-84
2023/08/03 14:08:03;;;;;;;7.95;2.00;;;21.80;99.90;;;;;;6129088;23;20333;-83
2023/08/03 14:10:34;;;;;;;6.13;2.05;;;21.90;99.90;;;;;;6127780;23;20017;-85
2023/08/03 14:13:18;;;;;;;5.65;1.88;;;22.10;99.90;;;;;;6128463;23;20021;-84
2023/08/03 14:15:46;;;;;;;8.43;1.98;;;22.20;99.90;;;;;;6154641;23;20083;-84
2023/08/03 14:18:15;;;;;;;7.97;2.25;;;22.10;99.90;;;;;;6129199;23;20064;-85
2023/08/03 14:20:41;;;;;;;8.40;2.35;;;22.40;99.90;;;;;;6154389;23;20055;-84
2023/08/03 14:25:45;;;;;;;10.05;2.60;;;21.60;99.90;;;;;;6148619;23;20034;-83
2023/08/03 14:28:13;;;;;;;8.02;2.10;;;21.20;99.90;;;;;;6128328;23;20013;-85
2023/08/03 14:30:39;;;;;;;7.30;2.17;;;21.10;99.90;;;;;;6128748;23;20021;-85
2023/08/03 14:36:41;;;;;;;9.80;2.72;;;21.40;99.90;;;;;;6124214;23;20397;-87
2023/08/03 14:39:12;;;;;;;9.13;2.50;;;22.00;99.90;;;;;;6128909;23;20596;-84
2023/08/03 14:41:39;;;;;;;7.97;2.30;;;22.20;99.90;;;;;;6128890;23;20013;-84
2023/08/03 14:44:04;;;;;;;10.57;2.40;;;22.40;99.90;;;;;;6157219;23;20438;-84
2023/08/03 14:47:15;;;;;;;11.20;2.70;;;22.40;99.90;;;;;;6131321;23;20454;-84
2023/08/03 14:49:51;;;;;;;10.48;2.60;;;22.30;99.90;;;;;;6107771;23;20470;-83
2023/08/03 14:53:00;;;;;;;9.80;2.95;;;21.90;99.90;;;;;;6131062;23;20080;-83
2023/08/03 14:55:30;;;;;;;11.63;3.00;;;21.50;99.90;;;;;;6120893;23;20045;-84
2023/08/03 14:58:13;;;;;;;10.57;3.10;;;21.30;99.90;;;;;;6156641;23;20337;-84
2023/08/03 15:00:39;;;;;;;9.93;2.83;;;21.20;99.90;;;;;;6130557;23;20022;-84
2023/08/03 15:03:13;;;;;;;10.68;3.30;;;21.10;99.90;;;;;;6129697;23;20021;-84
2023/08/03 15:09:49;;;;;;;10.07;2.50;;;21.10;99.90;;;;;;6154336;23;20426;-86
2023/08/03 15:12:26;;;;;;;9.98;2.40;;;20.60;99.90;;;;;;6156795;23;20029;-86
2023/08/03 15:15:01;;;;;;;11.95;2.85;;;21.10;99.90;;;;;;6130485;23;20017;-85
2023/08/03 15:18:05;;;;;;;8.70;2.55;;;20.80;99.90;;;;;;6130735;23;20021;-86
2023/08/03 15:20:41;;;;;;;8.93;2.55;;;20.60;99.90;;;;;;6008967;23;20028;-86
2023/08/03 15:23:48;;;;;;;11.85;3.03;;;20.60;99.90;;;;;;5985014;23;20062;-86
2023/08/03 15:27:05;;;;;;;12.55;3.15;;;20.40;99.90;;;;;;5929409;24;20342;-85
2023/08/03 15:29:52;;;;;;;9.93;2.75;;;20.40;99.90;;;;;;5927829;24;20024;-85
2023/08/03 15:36:48;;;;;;;10.32;2.78;;;20.00;99.90;;;;;;5938929;23;20137;-88
2023/08/03 15:39:52;;;;;;;12.02;2.70;;;20.00;99.90;;;;;;5903014;24;20032;-88
2023/08/03 15:42:23;;;;;;;10.13;3.13;;;20.00;99.90;;;;;;5848702;24;20100;-88
2023/08/03 16:07:37;;;;;;;9.93;3.47;;;19.40;99.90;;;;;;6135653;23;20032;-85
2023/08/03 16:21:50;;;;;;;10.18;3.53;;;18.50;99.90;;;;;;6153585;23;20021;-88
2023/08/03 16:39:59;;;;;;;;;;;;;;;;;;;;;
2023/08/03 17:21:31;;;;;;;11.57;3.40;;;18.70;99.90;;;;;;6042877;23;20443;-87
2023/08/03 17:24:06;;;;;;;10.38;3.35;;;18.60;99.90;;;;;;5977374;24;20362;-87
2023/08/03 17:26:31;;;;;;;12.55;3.80;;;18.90;99.90;;;;;;5956264;24;20055;-88
2023/08/03 17:28:59;;;;;;;14.98;3.58;;;18.90;99.90;;;;;;6063817;23;20022;-88
2023/08/03 17:31:37;;;;;;;11.27;3.50;;;18.80;99.90;;;;;;6125220;23;20018;-87
2023/08/03 17:34:03;;;;;;;13.95;3.92;;;18.80;99.90;;;;;;6123519;23;20435;-87
2023/08/03 17:36:48;;;;;;;13.18;3.50;;;18.70;99.90;;;;;;6123525;23;20049;-87
2023/08/03 17:39:16;;;;;;;12.02;3.50;;;18.70;99.90;;;;;;6095349;23;20025;-87
2023/08/03 17:41:51;;;;;;;15.13;3.50;;;18.60;99.90;;;;;;6096758;23;20026;-88
2023/08/03 17:44:29;;;;;;;13.52;3.90;;;18.60;99.90;;;;;;6124080;23;20379;-87
2023/08/03 17:49:27;;;;;;;12.88;3.78;;;18.60;99.90;;;;;;6125608;23;20025;-87
2023/08/03 17:51:53;;;;;;;13.98;3.90;;;18.50;99.90;;;;;;6097847;23;20326;-86
2023/08/03 17:54:25;;;;;;;13.23;4.18;;;18.60;99.90;;;;;;6125484;23;20379;-86
2023/08/03 17:56:51;;;;;;;11.15;3.60;;;18.50;99.90;;;;;;6098198;23;20021;-86
2023/08/03 17:59:23;;;;;;;13.32;3.78;;;18.50;99.90;;;;;;6122805;23;20014;-87
2023/08/03 18:02:03;;;;;;;10.20;3.58;;;18.40;99.90;;;;;;6098066;23;20025;-87
2023/08/03 18:04:50;;;;;;;12.95;3.85;;;18.50;99.90;;;;;;6098136;23;20022;-87
2023/08/03 18:07:23;;;;;;;12.60;3.60;;;18.40;99.90;;;;;;6125636;23;20025;-86
2023/08/03 18:10:10;;;;;;;17.63;3.75;;;19.00;99.90;;;;;;6097229;23;20029;-87
2023/08/03 18:13:04;;;;;;;13.88;3.97;;;18.30;99.90;;;;;;6097873;23;20105;-87
2023/08/03 18:16:12;;;;;;;11.40;3.77;;;18.20;99.90;;;;;;6047508;23;20029;-87
2023/08/03 18:18:59;;;;;;;12.50;5.18;;;17.70;99.90;;;;;;6084236;23;20014;-86
2023/08/03 18:32:19;;;;;;;13.40;3.90;;;17.90;99.90;;;;;;6151775;23;20056;-87
2023/08/03 18:35:42;;;;;;;;;;;;;;;;;;;;;
2023/08/03 19:26:32;;;;;;;11.60;3.90;;;17.30;99.90;;;;;;6125931;23;20037;-90
